Terminal Aerodrome Forecast
Issued by NWS

Home | Current Version | Previous Version | Text Only | Print | Product List | Glossary On
Versions: 1 2 3 4 5 6 7 8 9 10 11 12 13
000
FTUS41 KPHI 011735
TAFPNE
TAF
KPNE 011735Z 0118/0218 36005KT P6SM FEW050
     FM012200 16003KT P6SM FEW250
     FM020300 VRB03KT P6SM SCT250
      TEMPO 0209/0212 5SM BR
     FM021600 21007KT P6SM SCT050=

USA.gov is the U.S. government's official web portal to all federal, state and local government web resources and services.